Time;durP1;ratioP1;P1;durP2;ratioP2;P2;SDS_P1;SDS_P2;PMS_P1;PMS_P2;Temp;Humidity;BMP_temperature;BMP_pressure;BME280_temperature;BME280_humidity;BME280_pressure;Samples;Min_cycle;Max_cycle;Signal;HPM_P1;HPM_P2
2021/07/24 00:00:23;;;;;;;9.68;4.45;;;21.10;60.50;;;;;;5016544;28;20267;-48
2021/07/24 00:02:48;;;;;;;13.15;3.92;;;21.10;60.30;;;;;;5016512;28;20087;-47
2021/07/24 00:05:14;;;;;;;7.53;3.40;;;21.10;60.40;;;;;;5016496;28;20104;-49
2021/07/24 00:07:40;;;;;;;5.78;3.40;;;21.20;60.40;;;;;;5016289;28;20054;-48
2021/07/24 00:10:06;;;;;;;8.48;4.05;;;21.20;60.20;;;;;;5016598;28;20030;-50
2021/07/24 00:12:32;;;;;;;12.40;4.50;;;21.20;60.30;;;;;;5016182;28;20030;-48
2021/07/24 00:14:57;;;;;;;8.18;4.10;;;21.20;60.40;;;;;;5016251;28;20117;-47
2021/07/24 00:17:23;;;;;;;7.07;3.72;;;21.20;60.30;;;;;;5016059;28;20037;-49
2021/07/24 00:19:49;;;;;;;7.05;4.25;;;21.20;60.30;;;;;;5016223;28;20038;-45
2021/07/24 00:22:15;;;;;;;5.28;3.50;;;21.20;60.40;;;;;;5015909;28;20026;-50
2021/07/24 00:24:41;;;;;;;10.68;4.18;;;21.20;60.40;;;;;;5016185;28;20050;-52
2021/07/24 00:27:08;;;;;;;7.78;3.92;;;21.20;60.80;;;;;;5015973;28;20080;-50
2021/07/24 00:29:34;;;;;;;7.43;3.58;;;21.20;60.70;;;;;;5016431;28;20030;-50
2021/07/24 00:31:59;;;;;;;8.68;4.20;;;21.30;60.80;;;;;;5016088;28;20026;-51
2021/07/24 00:34:25;;;;;;;7.72;3.75;;;21.20;60.60;;;;;;5016046;28;20408;-48
2021/07/24 00:36:51;;;;;;;8.10;4.20;;;21.20;60.60;;;;;;5015577;28;20045;-48
2021/07/24 00:39:16;;;;;;;8.32;3.97;;;21.20;60.60;;;;;;5015150;28;20033;-48
2021/07/24 00:41:43;;;;;;;7.25;3.88;;;21.20;60.70;;;;;;5015799;28;20025;-47
2021/07/24 00:44:10;;;;;;;5.97;4.20;;;21.20;60.60;;;;;;5016429;28;20068;-44
2021/07/24 00:46:37;;;;;;;8.35;4.60;;;21.20;60.90;;;;;;5015801;28;20023;-47
2021/07/24 00:49:03;;;;;;;7.50;4.47;;;21.10;60.90;;;;;;5016452;28;20026;-47
2021/07/24 00:51:32;;;;;;;7.32;3.97;;;21.10;60.90;;;;;;5015380;28;20405;-49
2021/07/24 00:54:02;;;;;;;9.57;4.68;;;21.10;61.10;;;;;;5016378;28;20038;-51
2021/07/24 00:56:28;;;;;;;7.55;3.85;;;21.10;61.30;;;;;;5015941;28;20025;-49
2021/07/24 00:58:55;;;;;;;9.80;4.10;;;21.10;61.00;;;;;;5016237;28;20321;-48
2021/07/24 01:01:21;;;;;;;11.38;6.20;;;21.10;61.10;;;;;;5015726;28;20121;-49
2021/07/24 01:03:47;;;;;;;9.20;4.93;;;21.00;61.20;;;;;;5016062;28;20034;-52
2021/07/24 01:06:15;;;;;;;6.45;4.10;;;21.00;61.40;;;;;;5015348;28;20026;-51
2021/07/24 01:08:41;;;;;;;6.25;4.40;;;21.00;61.30;;;;;;5016189;28;20499;-45
2021/07/24 01:11:10;;;;;;;6.70;4.20;;;21.00;61.20;;;;;;5015803;28;20056;-49
2021/07/24 01:13:36;;;;;;;5.50;4.45;;;21.00;61.40;;;;;;5016007;28;20041;-45
2021/07/24 01:16:02;;;;;;;8.43;4.43;;;21.00;61.50;;;;;;5015742;28;20478;-46
2021/07/24 01:18:28;;;;;;;10.20;4.55;;;20.90;61.60;;;;;;5015589;28;20044;-44
2021/07/24 01:20:58;;;;;;;6.03;4.50;;;20.90;61.80;;;;;;5015933;28;20022;-48
2021/07/24 01:23:24;;;;;;;8.32;4.68;;;20.90;62.00;;;;;;5015797;28;20048;-47
2021/07/24 01:25:51;;;;;;;6.70;4.57;;;20.90;62.00;;;;;;5015879;28;20026;-49
2021/07/24 01:28:24;;;;;;;7.35;4.22;;;20.90;62.10;;;;;;5015731;28;20034;-50
2021/07/24 01:30:51;;;;;;;11.50;4.60;;;20.90;62.10;;;;;;5016000;28;20452;-53
2021/07/24 01:33:16;;;;;;;5.65;4.32;;;20.80;62.10;;;;;;5015624;28;20048;-52
2021/07/24 01:35:50;;;;;;;6.15;4.00;;;20.80;62.20;;;;;;5015224;28;20046;-49
2021/07/24 01:38:16;;;;;;;9.57;4.38;;;20.80;62.40;;;;;;5015517;28;20046;-49
2021/07/24 01:40:43;;;;;;;6.15;4.43;;;20.80;62.40;;;;;;5015727;28;20057;-50
2021/07/24 01:43:09;;;;;;;8.70;4.50;;;20.80;62.30;;;;;;5015402;28;20061;-49
2021/07/24 01:45:36;;;;;;;7.28;4.50;;;20.70;62.50;;;;;;5016520;28;20140;-48
2021/07/24 01:48:05;;;;;;;6.93;4.60;;;20.70;62.60;;;;;;5019012;28;20041;-47
2021/07/24 01:53:18;;;;;;;6.30;3.63;;;20.70;62.70;;;;;;5019236;28;20080;-52
2021/07/24 01:55:51;;;;;;;4.63;3.83;;;20.70;62.80;;;;;;5018992;28;20362;-48
2021/07/24 01:58:22;;;;;;;8.68;4.40;;;20.70;62.80;;;;;;5017605;28;20076;-50
2021/07/24 02:00:49;;;;;;;6.82;3.90;;;20.60;62.80;;;;;;5018802;28;20451;-49
2021/07/24 02:03:17;;;;;;;14.48;4.05;;;20.60;62.80;;;;;;5018155;28;20034;-47
2021/07/24 02:05:47;;;;;;;10.07;4.43;;;20.60;63.00;;;;;;5018680;28;20022;-50
2021/07/24 02:08:20;;;;;;;;;;;20.70;63.00;;;;;;5018916;28;20030;-49
2021/07/24 02:10:47;;;;;;;8.23;3.80;;;20.60;62.60;;;;;;5017440;28;20305;-51
2021/07/24 02:13:14;;;;;;;7.30;4.00;;;20.60;62.90;;;;;;5018462;28;20121;-45
2021/07/24 02:15:40;;;;;;;17.13;4.72;;;20.60;63.00;;;;;;5018494;28;20381;-47
2021/07/24 02:18:06;;;;;;;14.10;4.53;;;20.60;63.20;;;;;;5018028;28;20108;-47
2021/07/24 02:20:33;;;;;;;7.88;4.22;;;20.60;63.20;;;;;;5018359;28;20030;-47
2021/07/24 02:22:58;;;;;;;7.90;4.70;;;20.60;63.20;;;;;;5018262;28;20355;-48
2021/07/24 02:25:25;;;;;;;9.65;4.53;;;20.50;63.40;;;;;;5018277;28;20069;-50
2021/07/24 02:27:51;;;;;;;10.90;4.75;;;20.50;63.60;;;;;;5018190;28;20033;-51
2021/07/24 02:30:18;;;;;;;9.70;4.28;;;20.50;63.70;;;;;;5018193;28;20032;-50
2021/07/24 02:32:44;;;;;;;7.93;4.70;;;20.50;63.90;;;;;;5017987;28;20046;-48
2021/07/24 02:35:11;;;;;;;8.68;4.68;;;20.50;64.20;;;;;;5017846;28;20084;-45
2021/07/24 02:37:37;;;;;;;6.40;4.40;;;20.50;64.40;;;;;;5017741;28;20049;-52
2021/07/24 02:40:05;;;;;;;8.45;4.70;;;20.50;64.60;;;;;;5018072;28;20025;-50
2021/07/24 02:42:31;;;;;;;9.13;4.40;;;20.50;64.70;;;;;;5017595;28;20465;-50
2021/07/24 02:44:57;;;;;;;7.95;4.10;;;20.50;64.90;;;;;;5017910;28;20117;-48
2021/07/24 02:47:23;;;;;;;7.05;4.70;;;20.50;65.00;;;;;;5017739;28;20349;-46
2021/07/24 02:49:49;;;;;;;8.18;4.70;;;20.50;65.10;;;;;;5016706;28;20109;-48
2021/07/24 02:52:14;;;;;;;10.57;5.10;;;20.50;65.20;;;;;;5017464;28;20418;-48
2021/07/24 02:54:40;;;;;;;10.52;5.03;;;20.50;65.30;;;;;;5017830;28;20029;-46
2021/07/24 02:57:06;;;;;;;11.82;4.78;;;20.50;65.50;;;;;;5016474;28;20022;-47
2021/07/24 02:59:32;;;;;;;8.57;4.20;;;20.50;65.50;;;;;;5017601;28;20464;-47
2021/07/24 03:01:57;;;;;;;11.20;5.40;;;20.60;65.70;;;;;;5016180;28;20022;-44
2021/07/24 03:04:23;;;;;;;8.55;4.90;;;20.60;65.80;;;;;;5017542;28;20407;-52
2021/07/24 03:06:49;;;;;;;8.52;5.00;;;20.60;65.70;;;;;;5017292;28;20033;-51
2021/07/24 03:09:15;;;;;;;9.10;4.93;;;20.60;65.80;;;;;;5017383;28;20113;-50
2021/07/24 03:11:41;;;;;;;9.32;5.05;;;20.60;65.80;;;;;;5017521;28;20382;-47
2021/07/24 03:14:07;;;;;;;9.45;5.63;;;20.70;65.90;;;;;;5017794;28;20034;-45
2021/07/24 03:16:33;;;;;;;7.47;5.30;;;20.70;66.10;;;;;;5016965;28;20479;-52
2021/07/24 03:18:59;;;;;;;9.57;5.72;;;20.70;66.00;;;;;;5017821;28;20120;-49
2021/07/24 03:21:24;;;;;;;12.90;7.28;;;20.70;65.90;;;;;;5017203;28;20033;-49
2021/07/24 03:23:50;;;;;;;10.15;6.10;;;20.70;65.80;;;;;;5017450;28;20037;-48
2021/07/24 03:26:17;;;;;;;10.57;5.70;;;20.80;65.60;;;;;;5017001;28;20104;-48
2021/07/24 03:28:43;;;;;;;10.82;5.97;;;20.80;65.50;;;;;;5017459;28;20407;-44
2021/07/24 03:31:09;;;;;;;11.23;5.85;;;20.80;65.80;;;;;;5016877;28;20026;-51
2021/07/24 03:33:35;;;;;;;12.10;6.28;;;20.80;65.60;;;;;;5017356;28;20113;-45
2021/07/24 03:36:00;;;;;;;9.60;5.97;;;20.90;65.70;;;;;;5016782;28;20104;-44
2021/07/24 03:38:27;;;;;;;10.85;6.15;;;20.90;65.50;;;;;;5017163;28;20030;-48
2021/07/24 03:40:53;;;;;;;12.27;6.30;;;20.90;65.30;;;;;;5017197;28;20318;-45
2021/07/24 03:43:19;;;;;;;11.02;6.05;;;20.90;65.30;;;;;;5016816;28;20108;-51
2021/07/24 03:45:45;;;;;;;7.82;5.57;;;20.90;65.40;;;;;;5017075;28;20022;-47
2021/07/24 03:48:11;;;;;;;7.90;5.30;;;20.90;65.20;;;;;;5016595;28;20045;-49
2021/07/24 03:50:36;;;;;;;10.13;5.97;;;21.00;65.10;;;;;;5017069;28;20022;-50
2021/07/24 03:53:02;;;;;;;8.27;5.90;;;21.00;65.30;;;;;;5016657;28;20093;-47
2021/07/24 03:55:28;;;;;;;11.80;5.95;;;21.00;65.30;;;;;;5016846;28;20105;-50
2021/07/24 03:57:56;;;;;;;11.50;6.15;;;21.00;65.30;;;;;;5016515;28;20358;-44
2021/07/24 04:00:23;;;;;;;7.43;5.80;;;21.10;65.30;;;;;;5016770;28;20101;-48
2021/07/24 04:02:50;;;;;;;12.45;6.63;;;21.10;65.10;;;;;;5016366;28;20034;-50
2021/07/24 04:05:17;;;;;;;12.15;6.20;;;21.20;64.90;;;;;;5016498;28;20034;-50
2021/07/24 04:07:43;;;;;;;11.23;6.13;;;21.20;64.70;;;;;;5016139;28;20038;-47
2021/07/24 04:10:10;;;;;;;7.93;5.60;;;21.20;65.30;;;;;;5016398;28;20041;-49
2021/07/24 04:12:39;;;;;;;10.25;5.82;;;21.20;64.60;;;;;;5016291;28;20402;-46
2021/07/24 04:15:05;;;;;;;15.45;6.55;;;21.20;64.70;;;;;;5016338;28;20026;-52
2021/07/24 04:17:32;;;;;;;8.93;6.07;;;21.20;64.70;;;;;;5015983;28;20414;-52
2021/07/24 04:19:58;;;;;;;7.55;5.78;;;21.30;64.50;;;;;;5016065;28;20026;-44
2021/07/24 04:22:24;;;;;;;11.18;5.78;;;21.30;64.80;;;;;;5015745;28;20038;-49
2021/07/24 04:24:50;;;;;;;13.00;6.38;;;21.30;64.80;;;;;;5016200;28;20022;-49
2021/07/24 04:27:15;;;;;;;16.20;6.75;;;21.30;64.90;;;;;;5015851;28;20025;-46
2021/07/24 04:29:41;;;;;;;14.88;7.97;;;21.40;64.90;;;;;;5016048;28;20026;-48
2021/07/24 04:32:07;;;;;;;10.80;6.60;;;21.40;64.70;;;;;;5015679;28;20042;-49
2021/07/24 04:34:33;;;;;;;10.55;6.13;;;21.40;64.70;;;;;;5016027;28;20319;-44
2021/07/24 04:36:59;;;;;;;10.10;6.28;;;21.50;65.00;;;;;;5015511;28;20029;-49
2021/07/24 04:39:24;;;;;;;14.23;6.65;;;21.50;64.90;;;;;;5015999;28;20034;-48
2021/07/24 04:41:50;;;;;;;7.07;5.75;;;21.50;65.00;;;;;;5015617;28;20057;-51
2021/07/24 04:44:16;;;;;;;9.02;6.43;;;21.60;65.20;;;;;;5016218;28;20076;-52
2021/07/24 04:46:42;;;;;;;10.27;6.32;;;21.60;64.60;;;;;;5015471;28;20322;-47
2021/07/24 04:49:07;;;;;;;8.25;5.75;;;21.60;64.60;;;;;;5016082;28;20060;-48
2021/07/24 04:51:36;;;;;;;12.88;6.50;;;21.60;64.70;;;;;;5015254;28;20383;-48
2021/07/24 04:54:08;;;;;;;7.32;5.50;;;21.60;64.60;;;;;;5015550;28;20372;-51
2021/07/24 04:56:36;;;;;;;13.48;6.70;;;21.60;65.00;;;;;;5015662;28;20087;-49
2021/07/24 04:59:04;;;;;;;10.57;6.57;;;21.60;65.20;;;;;;5015846;28;20037;-49
2021/07/24 05:01:29;;;;;;;7.72;6.40;;;21.60;65.20;;;;;;5015381;28;20326;-49
2021/07/24 05:03:57;;;;;;;8.02;6.05;;;21.70;65.50;;;;;;5015554;28;20030;-48
2021/07/24 05:06:23;;;;;;;11.80;6.22;;;21.70;65.80;;;;;;5014061;28;20085;-50
2021/07/24 05:08:49;;;;;;;8.75;5.75;;;21.80;65.80;;;;;;5015920;28;20088;-46
2021/07/24 05:11:15;;;;;;;9.70;6.00;;;21.80;65.90;;;;;;5015222;28;20029;-46
2021/07/24 05:13:40;;;;;;;9.20;6.30;;;21.90;65.90;;;;;;5015485;28;20113;-49
2021/07/24 05:16:06;;;;;;;12.32;7.22;;;22.00;66.00;;;;;;5015308;28;20390;-49
2021/07/24 05:18:32;;;;;;;10.40;6.53;;;22.00;65.80;;;;;;5015877;28;20406;-46
2021/07/24 05:20:57;;;;;;;7.72;6.30;;;22.10;65.80;;;;;;5017049;28;20037;-47
2021/07/24 05:23:24;;;;;;;13.10;6.93;;;22.20;65.60;;;;;;5019384;28;20038;-50
2021/07/24 05:25:50;;;;;;;10.60;6.55;;;22.20;65.60;;;;;;5019466;28;20025;-45
2021/07/24 05:28:15;;;;;;;9.15;6.65;;;22.30;65.50;;;;;;5018357;28;20367;-48
2021/07/24 05:30:41;;;;;;;9.95;6.88;;;22.40;65.30;;;;;;5018858;28;20456;-45
2021/07/24 05:33:07;;;;;;;8.20;6.53;;;22.40;65.10;;;;;;5019289;28;20369;-44
2021/07/24 05:35:32;;;;;;;12.05;7.10;;;22.50;65.00;;;;;;5018536;28;20045;-45
2021/07/24 05:37:59;;;;;;;12.07;6.93;;;22.60;65.00;;;;;;5018506;28;20113;-48
2021/07/24 05:40:24;;;;;;;16.88;6.80;;;22.60;64.80;;;;;;5019049;28;20349;-50
2021/07/24 05:42:50;;;;;;;9.68;6.38;;;22.70;64.40;;;;;;5018471;28;20041;-51
2021/07/24 05:45:16;;;;;;;8.35;6.57;;;22.80;64.10;;;;;;5018679;28;20057;-48
2021/07/24 05:47:41;;;;;;;14.43;6.20;;;22.90;63.80;;;;;;5018695;28;20034;-52
2021/07/24 05:50:08;;;;;;;8.52;6.82;;;23.00;63.50;;;;;;5018539;28;20061;-51
2021/07/24 05:52:33;;;;;;;8.25;5.88;;;23.00;63.00;;;;;;5018534;28;20088;-48
2021/07/24 05:54:59;;;;;;;12.40;6.80;;;23.10;63.00;;;;;;5017958;28;20022;-47
2021/07/24 05:57:24;;;;;;;11.35;6.60;;;23.10;62.80;;;;;;5018260;28;20030;-48
2021/07/24 05:59:50;;;;;;;9.35;6.53;;;23.20;62.80;;;;;;5018456;28;20021;-48
2021/07/24 06:02:16;;;;;;;11.10;6.15;;;23.30;62.90;;;;;;5017817;28;20046;-46
2021/07/24 06:04:47;;;;;;;13.65;5.80;;;23.30;62.00;;;;;;5017945;28;20120;-49
2021/07/24 06:07:12;;;;;;;9.48;6.47;;;23.40;61.90;;;;;;5018182;28;20414;-50
2021/07/24 06:09:38;;;;;;;10.43;6.00;;;23.40;62.20;;;;;;5018201;28;20030;-51
2021/07/24 06:12:05;;;;;;;10.00;6.25;;;23.50;61.80;;;;;;5017854;28;20028;-48
2021/07/24 06:14:32;;;;;;;10.40;6.95;;;23.50;61.40;;;;;;5017947;28;20061;-48
2021/07/24 06:16:57;;;;;;;9.48;6.28;;;23.60;61.30;;;;;;5018389;28;20057;-49
2021/07/24 06:19:23;;;;;;;10.68;6.88;;;23.70;61.10;;;;;;5018074;28;20271;-46
2021/07/24 06:21:48;;;;;;;9.05;6.00;;;23.80;61.10;;;;;;5017864;28;20126;-48
2021/07/24 06:24:14;;;;;;;9.95;6.30;;;23.80;60.90;;;;;;5018279;28;20042;-50
2021/07/24 06:26:40;;;;;;;8.30;6.55;;;23.80;60.30;;;;;;5016389;28;20030;-50
2021/07/24 06:29:07;;;;;;;13.75;7.50;;;23.90;60.10;;;;;;5018471;28;20030;-46
2021/07/24 06:31:32;;;;;;;9.05;6.57;;;23.90;59.70;;;;;;5016297;28;20472;-45
2021/07/24 06:34:00;;;;;;;8.98;6.90;;;24.00;59.90;;;;;;5018241;28;20037;-50
2021/07/24 06:36:26;;;;;;;9.63;6.50;;;24.00;60.10;;;;;;5017289;28;20045;-49
2021/07/24 06:38:52;;;;;;;17.23;6.93;;;24.00;60.20;;;;;;5018070;28;20149;-50
2021/07/24 06:41:18;;;;;;;8.90;6.47;;;24.10;60.10;;;;;;5017345;28;20554;-53
2021/07/24 06:43:43;;;;;;;10.13;7.18;;;24.10;59.80;;;;;;5017971;28;20041;-46
2021/07/24 06:46:13;;;;;;;10.82;7.30;;;24.10;60.40;;;;;;5017218;28;20105;-51
2021/07/24 06:48:39;;;;;;;9.82;6.50;;;24.20;59.80;;;;;;5017995;28;20029;-45
2021/07/24 06:51:06;;;;;;;17.48;7.40;;;24.20;59.90;;;;;;5017027;28;20044;-47
2021/07/24 06:53:32;;;;;;;11.20;7.30;;;24.30;59.50;;;;;;5017838;28;20085;-47
2021/07/24 06:55:58;;;;;;;9.32;6.75;;;24.30;59.40;;;;;;5016861;28;20041;-51
2021/07/24 06:58:24;;;;;;;11.40;6.80;;;24.40;59.30;;;;;;5016999;28;20414;-45
2021/07/24 07:00:49;;;;;;;9.40;7.07;;;24.40;59.10;;;;;;5017346;28;20115;-48
2021/07/24 07:03:15;;;;;;;10.50;6.25;;;24.40;58.90;;;;;;5017062;28;20080;-48
2021/07/24 07:05:41;;;;;;;10.65;6.55;;;24.50;58.90;;;;;;5016953;28;20430;-47
2021/07/24 07:08:06;;;;;;;8.18;6.05;;;24.50;59.10;;;;;;5016630;28;20112;-48
2021/07/24 07:10:32;;;;;;;10.00;6.90;;;24.60;58.70;;;;;;5017002;28;20029;-45
2021/07/24 07:12:57;;;;;;;8.63;6.60;;;24.60;58.50;;;;;;5017030;28;20092;-51
2021/07/24 07:15:25;;;;;;;10.90;6.28;;;24.60;58.50;;;;;;5017002;28;20430;-45
2021/07/24 07:17:52;;;;;;;10.80;7.25;;;24.70;58.50;;;;;;5017045;28;20116;-48
2021/07/24 07:20:17;;;;;;;9.32;6.45;;;24.70;58.70;;;;;;5017340;28;20088;-51
2021/07/24 07:22:43;;;;;;;11.13;6.85;;;24.70;58.00;;;;;;5016599;28;20410;-51
2021/07/24 07:25:10;;;;;;;9.77;6.80;;;24.80;58.30;;;;;;5015732;28;20327;-50
2021/07/24 07:27:43;;;;;;;11.00;7.05;;;24.80;58.30;;;;;;5016703;28;20032;-50
2021/07/24 07:30:10;;;;;;;11.35;6.60;;;24.90;58.10;;;;;;5017035;28;20036;-53
2021/07/24 07:32:35;;;;;;;8.77;6.55;;;24.90;57.60;;;;;;5016452;28;20029;-49
2021/07/24 07:35:01;;;;;;;11.43;6.35;;;25.00;57.80;;;;;;5016212;28;20048;-47
2021/07/24 07:37:27;;;;;;;9.80;6.47;;;25.00;57.90;;;;;;5016252;28;20030;-48
2021/07/24 07:39:53;;;;;;;11.82;7.63;;;25.10;57.60;;;;;;5016516;28;20100;-45
2021/07/24 07:42:19;;;;;;;12.15;8.57;;;25.10;57.40;;;;;;5016165;28;20061;-51
2021/07/24 07:44:44;;;;;;;9.18;7.03;;;25.20;57.50;;;;;;5013089;28;20034;-49
2021/07/24 07:47:11;;;;;;;8.13;6.32;;;25.20;57.50;;;;;;5016345;28;20138;-48
2021/07/24 07:49:37;;;;;;;9.60;7.05;;;25.30;57.50;;;;;;5016271;28;20034;-48
2021/07/24 07:52:04;;;;;;;9.60;7.38;;;25.40;56.90;;;;;;5016394;28;20376;-47
2021/07/24 07:54:31;;;;;;;13.18;7.00;;;25.40;57.20;;;;;;5016327;28;20433;-47
2021/07/24 07:57:00;;;;;;;11.35;7.47;;;25.40;56.80;;;;;;5015928;28;20033;-47
2021/07/24 07:59:26;;;;;;;11.48;6.55;;;25.40;56.80;;;;;;5015880;28;20076;-48
2021/07/24 08:01:52;;;;;;;12.70;7.20;;;25.50;57.00;;;;;;5015757;28;20109;-45
2021/07/24 08:04:18;;;;;;;9.63;6.30;;;25.60;56.80;;;;;;5015763;28;20117;-44
2021/07/24 08:06:43;;;;;;;9.07;6.78;;;25.60;56.40;;;;;;5015861;28;20026;-46
2021/07/24 08:09:09;;;;;;;9.90;7.78;;;25.70;56.40;;;;;;5015932;28;20038;-47
2021/07/24 08:11:35;;;;;;;9.52;7.13;;;25.70;56.30;;;;;;5015652;28;20071;-46
2021/07/24 08:14:00;;;;;;;11.82;6.20;;;25.80;55.30;;;;;;5015581;28;20602;-49
2021/07/24 08:16:26;;;;;;;11.25;6.38;;;25.80;55.00;;;;;;5015739;28;20030;-45
2021/07/24 08:18:52;;;;;;;9.98;7.80;;;25.90;54.90;;;;;;5012059;28;20068;-49
2021/07/24 08:21:17;;;;;;;12.20;7.47;;;25.90;55.50;;;;;;5013981;28;20037;-46
2021/07/24 08:23:43;;;;;;;11.88;8.85;;;26.00;55.50;;;;;;5015465;28;20049;-48
2021/07/24 08:26:09;;;;;;;18.10;8.95;;;26.00;55.50;;;;;;5014845;28;20026;-48
2021/07/24 08:28:34;;;;;;;9.88;7.50;;;26.00;55.10;;;;;;5015190;28;20117;-48
2021/07/24 08:31:00;;;;;;;10.02;6.88;;;26.10;54.60;;;;;;5014953;28;20112;-47
2021/07/24 08:33:26;;;;;;;15.43;7.95;;;26.10;54.50;;;;;;5015099;28;20038;-47
2021/07/24 08:35:54;;;;;;;10.63;6.80;;;26.20;53.10;;;;;;5015416;28;20033;-48
2021/07/24 08:38:19;;;;;;;19.70;12.80;;;26.20;52.80;;;;;;5014487;28;20037;-46
2021/07/24 08:40:46;;;;;;;13.05;8.32;;;26.20;52.20;;;;;;5015219;28;20036;-47
2021/07/24 08:43:13;;;;;;;9.07;6.40;;;26.30;53.00;;;;;;5015359;28;20064;-44
2021/07/24 08:45:39;;;;;;;8.50;6.25;;;26.30;51.60;;;;;;5015210;28;20116;-46
2021/07/24 08:48:05;;;;;;;11.00;6.97;;;26.30;52.20;;;;;;5014901;28;20030;-49
2021/07/24 08:50:34;;;;;;;12.57;7.15;;;26.30;52.80;;;;;;5014560;28;20030;-49
2021/07/24 08:53:05;;;;;;;7.45;6.45;;;26.40;52.50;;;;;;5013953;28;20126;-49
2021/07/24 08:55:32;;;;;;;9.05;6.43;;;26.40;52.00;;;;;;5017340;28;20365;-48
2021/07/24 08:57:59;;;;;;;9.50;6.25;;;26.50;52.60;;;;;;5018974;28;20122;-49
2021/07/24 09:00:27;;;;;;;13.52;6.68;;;26.50;52.20;;;;;;5018432;28;20100;-45
2021/07/24 09:02:56;;;;;;;8.70;5.88;;;26.50;51.60;;;;;;5017656;28;20424;-48
2021/07/24 09:05:22;;;;;;;8.48;6.85;;;26.60;51.40;;;;;;5018663;28;20033;-48
2021/07/24 09:07:49;;;;;;;8.95;6.43;;;26.60;51.50;;;;;;5019187;28;20029;-49
2021/07/24 09:10:17;;;;;;;9.30;6.90;;;26.60;52.10;;;;;;5018616;28;20406;-47
2021/07/24 09:12:47;;;;;;;10.05;6.57;;;26.70;51.20;;;;;;5019204;28;20038;-46
2021/07/24 09:15:16;;;;;;;10.35;7.43;;;26.70;52.20;;;;;;5018827;28;20057;-48
2021/07/24 09:17:42;;;;;;;9.68;6.75;;;26.70;52.10;;;;;;5018450;28;20473;-46
2021/07/24 09:20:09;;;;;;;8.85;5.88;;;26.80;52.30;;;;;;5017920;28;20044;-47
2021/07/24 09:22:36;;;;;;;9.23;6.55;;;26.80;51.40;;;;;;5018373;28;20030;-46
2021/07/24 09:25:15;;;;;;;7.95;5.80;;;26.80;51.30;;;;;;5018137;28;20018;-46
2021/07/24 09:27:48;;;;;;;8.00;5.78;;;26.90;51.30;;;;;;5018803;28;20076;-45
2021/07/24 09:30:23;;;;;;;7.93;6.10;;;26.90;51.40;;;;;;5018313;28;20308;-45
2021/07/24 09:33:07;;;;;;;9.73;7.15;;;26.90;50.90;;;;;;5018381;28;20460;-45
2021/07/24 09:35:36;;;;;;;9.20;6.07;;;27.00;50.40;;;;;;5017915;28;20052;-49
2021/07/24 09:38:03;;;;;;;9.82;6.63;;;27.00;51.00;;;;;;5018461;28;20093;-45
2021/07/24 09:40:29;;;;;;;15.02;6.95;;;27.00;50.90;;;;;;5018192;28;20434;-46
2021/07/24 09:42:54;;;;;;;8.75;6.70;;;27.10;50.40;;;;;;5018467;28;20096;-46
2021/07/24 09:45:20;;;;;;;10.82;6.65;;;27.10;50.90;;;;;;5017611;28;20108;-49
2021/07/24 09:47:47;;;;;;;11.80;6.85;;;27.20;50.70;;;;;;5018680;28;20426;-48
2021/07/24 09:50:17;;;;;;;8.70;6.63;;;27.20;50.90;;;;;;5017979;28;20030;-50
2021/07/24 09:53:01;;;;;;;8.15;6.57;;;27.30;50.80;;;;;;5018163;28;20065;-46
2021/07/24 09:55:26;;;;;;;10.65;5.88;;;27.30;50.80;;;;;;5017986;28;20394;-48
2021/07/24 09:57:56;;;;;;;13.75;7.05;;;27.30;50.10;;;;;;5018016;28;20061;-45
2021/07/24 10:00:27;;;;;;;9.53;6.47;;;27.40;50.60;;;;;;5017670;28;20402;-48
2021/07/24 10:03:01;;;;;;;7.82;6.00;;;27.50;50.80;;;;;;5017967;28;20041;-48
2021/07/24 10:05:41;;;;;;;9.68;6.65;;;27.50;49.70;;;;;;5017899;28;20033;-46
2021/07/24 10:08:15;;;;;;;8.82;6.05;;;27.50;49.70;;;;;;5017388;28;20350;-47
2021/07/24 10:10:42;;;;;;;8.63;6.22;;;27.60;49.80;;;;;;5017112;28;20056;-46
2021/07/24 10:13:13;;;;;;;9.90;6.22;;;27.60;50.60;;;;;;5017968;28;20030;-49
2021/07/24 10:15:41;;;;;;;8.43;6.38;;;27.70;48.30;;;;;;5017825;28;20295;-48
2021/07/24 10:18:09;;;;;;;12.40;8.35;;;27.70;49.10;;;;;;5017992;28;20038;-49
2021/07/24 10:20:36;;;;;;;11.15;7.22;;;27.80;49.60;;;;;;5016737;28;20026;-47
2021/07/24 10:23:03;;;;;;;10.45;6.15;;;27.90;49.10;;;;;;5015928;28;20034;-48
2021/07/24 10:25:29;;;;;;;9.90;7.57;;;27.90;48.70;;;;;;5017492;28;20031;-49
2021/07/24 10:27:56;;;;;;;8.95;6.82;;;28.00;49.00;;;;;;5017128;28;20334;-48
2021/07/24 10:30:28;;;;;;;8.23;6.18;;;28.10;48.60;;;;;;5017368;28;20022;-46
2021/07/24 10:32:57;;;;;;;7.72;6.05;;;28.10;48.70;;;;;;5017556;28;20414;-46
2021/07/24 10:35:40;;;;;;;8.97;5.70;;;28.20;48.40;;;;;;5016508;28;20406;-45
2021/07/24 10:38:26;;;;;;;8.70;6.18;;;28.20;48.40;;;;;;5016922;28;20117;-45
2021/07/24 10:40:51;;;;;;;9.60;6.10;;;28.30;48.40;;;;;;5017305;28;20030;-47
2021/07/24 10:43:55;;;;;;;10.43;6.10;;;28.40;48.10;;;;;;5016811;28;20061;-49
2021/07/24 10:46:21;;;;;;;8.63;5.63;;;28.50;48.20;;;;;;5016699;28;20037;-46
2021/07/24 10:48:47;;;;;;;12.60;6.63;;;28.50;48.20;;;;;;5017118;28;20395;-48
2021/07/24 10:51:16;;;;;;;8.95;6.15;;;28.60;47.10;;;;;;5017225;28;20041;-50
2021/07/24 10:54:01;;;;;;;13.02;6.93;;;28.80;47.50;;;;;;5017181;28;20072;-49
2021/07/24 10:56:37;;;;;;;8.63;6.93;;;28.90;47.30;;;;;;5016841;28;20026;-48
2021/07/24 10:59:19;;;;;;;6.60;5.07;;;28.90;46.70;;;;;;5016873;28;20122;-48
2021/07/24 11:01:52;;;;;;;9.05;5.28;;;29.00;46.80;;;;;;5017079;28;20045;-46
2021/07/24 11:04:36;;;;;;;7.20;5.63;;;29.10;46.60;;;;;;5016034;28;20415;-49
2021/07/24 11:07:17;;;;;;;9.30;5.35;;;29.10;46.40;;;;;;5016379;28;20025;-48
2021/07/24 11:09:43;;;;;;;7.80;5.60;;;29.20;45.70;;;;;;5013957;28;20021;-45
2021/07/24 11:12:11;;;;;;;8.35;4.90;;;29.20;46.10;;;;;;5016366;28;20154;-49
2021/07/24 11:14:37;;;;;;;7.93;4.70;;;29.30;45.30;;;;;;5016380;28;20040;-47
2021/07/24 11:17:05;;;;;;;9.38;5.05;;;29.20;45.10;;;;;;5016462;28;20022;-50
2021/07/24 11:19:36;;;;;;;10.93;5.78;;;29.20;44.20;;;;;;5014751;28;20080;-46
2021/07/24 11:22:08;;;;;;;7.03;5.25;;;29.10;43.60;;;;;;5016033;28;20430;-47
2021/07/24 11:24:34;;;;;;;6.78;5.07;;;29.10;44.70;;;;;;5015935;28;20088;-47
2021/07/24 11:27:00;;;;;;;7.00;5.50;;;29.00;44.60;;;;;;5016283;28;20034;-45
2021/07/24 11:29:26;;;;;;;9.98;4.97;;;29.00;44.70;;;;;;5016754;28;20056;-49
2021/07/24 11:31:52;;;;;;;6.20;5.03;;;29.00;44.10;;;;;;5016203;28;20159;-46
2021/07/24 11:34:21;;;;;;;9.82;5.55;;;29.00;44.20;;;;;;5016525;28;20351;-49
2021/07/24 11:36:51;;;;;;;10.55;5.32;;;28.90;44.30;;;;;;5016562;28;20026;-49
2021/07/24 11:39:27;;;;;;;7.53;5.55;;;28.90;44.40;;;;;;5072401;28;20445;-46
2021/07/24 11:41:53;;;;;;;7.85;5.50;;;28.90;44.00;;;;;;5072374;28;20375;-49
2021/07/24 11:44:25;;;;;;;10.52;6.43;;;28.80;44.50;;;;;;5072609;28;20310;-46
2021/07/24 11:47:02;;;;;;;9.18;5.30;;;28.90;44.30;;;;;;5071655;28;20096;-44
2021/07/24 11:49:29;;;;;;;11.00;5.47;;;28.90;45.20;;;;;;5072848;28;20029;-47
2021/07/24 11:51:57;;;;;;;9.25;5.55;;;28.90;44.80;;;;;;5072444;28;20021;-49
2021/07/24 11:54:29;;;;;;;7.53;5.35;;;29.00;44.20;;;;;;5072677;28;20104;-45
2021/07/24 11:56:55;;;;;;;9.57;6.07;;;29.20;44.30;;;;;;5071602;28;20092;-44
2021/07/24 11:59:21;;;;;;;7.60;4.97;;;29.30;44.90;;;;;;5072334;28;20116;-47
2021/07/24 12:01:47;;;;;;;9.10;4.75;;;29.50;45.20;;;;;;5072198;28;20021;-46
2021/07/24 12:04:15;;;;;;;6.82;5.07;;;29.70;43.50;;;;;;5072026;28;20336;-46
2021/07/24 12:06:55;;;;;;;6.18;4.65;;;29.90;41.70;;;;;;5063453;28;20025;-50
2021/07/24 12:09:21;;;;;;;7.70;4.75;;;30.20;42.80;;;;;;5052102;28;20037;-45
2021/07/24 12:12:00;;;;;;;5.85;4.65;;;30.30;42.50;;;;;;5069267;28;20024;-44
2021/07/24 12:14:28;;;;;;;6.43;4.80;;;30.50;42.80;;;;;;5067588;28;20144;-45
2021/07/24 12:17:06;;;;;;;8.57;5.03;;;30.50;41.70;;;;;;5070958;28;20052;-44
2021/07/24 12:19:40;;;;;;;8.45;4.95;;;30.60;41.40;;;;;;5071274;28;20025;-47
2021/07/24 12:22:21;;;;;;;6.07;5.00;;;30.60;40.90;;;;;;5071741;28;20056;-46
2021/07/24 12:24:49;;;;;;;7.50;5.25;;;30.60;40.70;;;;;;5071539;28;20047;-49
2021/07/24 12:27:21;;;;;;;6.63;4.72;;;30.60;40.90;;;;;;5071597;28;20033;-50
2021/07/24 12:29:58;;;;;;;7.63;5.18;;;30.50;40.70;;;;;;5071187;28;20075;-48
2021/07/24 12:32:40;;;;;;;6.38;5.40;;;30.50;41.30;;;;;;5071519;28;20417;-48
2021/07/24 12:35:24;;;;;;;8.50;5.00;;;30.30;41.50;;;;;;5070698;28;20025;-47
2021/07/24 12:38:04;;;;;;;7.15;5.13;;;30.20;41.90;;;;;;5070482;28;20059;-47
2021/07/24 12:40:30;;;;;;;7.13;5.20;;;30.10;42.50;;;;;;5071095;28;20052;-47
2021/07/24 12:43:10;;;;;;;6.82;5.43;;;30.00;43.00;;;;;;5070855;28;20435;-51
2021/07/24 12:45:35;;;;;;;8.10;5.20;;;30.00;43.00;;;;;;5071305;28;20033;-46
2021/07/24 12:48:17;;;;;;;7.13;5.05;;;29.90;43.00;;;;;;5071057;28;20037;-45